createdAt,value
2018-11-20T00:01:40.395Z,85.78
2018-11-20T00:07:01.814Z,85.88
2018-11-20T00:12:10.170Z,86.10
2018-11-20T00:17:34.652Z,86.55
2018-11-20T00:22:43.752Z,85.91
2018-11-20T00:27:47.779Z,85.84
2018-11-20T00:32:59.122Z,85.77
2018-11-20T00:38:01.619Z,85.30
2018-11-20T00:43:19.887Z,85.04
2018-11-20T00:48:45.793Z,85.29
2018-11-20T00:53:48.376Z,85.26
2018-11-20T00:58:48.426Z,85.23
2018-11-20T01:03:56.354Z,85.59
2018-11-20T01:09:03.330Z,85.47
2018-11-20T01:14:09.581Z,85.88
2018-11-20T01:19:13.868Z,84.98
2018-11-20T01:24:11.737Z,84.63
2018-11-20T01:29:20.364Z,84.37
2018-11-20T01:34:46.767Z,84.56
2018-11-20T01:40:00.136Z,84.75
2018-11-20T01:45:06.196Z,84.99
2018-11-20T01:50:14.783Z,85.38
2018-11-20T01:55:24.800Z,85.26
2018-11-20T02:00:31.236Z,85.20
2018-11-20T02:05:34.219Z,85.64
2018-11-20T02:10:48.503Z,85.65
2018-11-20T02:16:14.156Z,85.84
2018-11-20T02:21:24.807Z,85.88
2018-11-20T02:26:31.319Z,85.27
2018-11-20T02:31:57.465Z,85.08
2018-11-20T02:37:17.085Z,84.49
2018-11-20T02:42:39.752Z,84.56
2018-11-20T02:48:04.452Z,84.27
2018-11-20T02:53:12.615Z,83.61
2018-11-20T02:58:17.762Z,83.40
2018-11-20T03:03:21.507Z,83.74
2018-11-20T03:08:47.421Z,84.10
2018-11-20T03:13:55.252Z,83.60
2018-11-20T03:19:13.460Z,83.44
2018-11-20T03:24:30.391Z,83.11
2018-11-20T03:30:13.180Z,83.72
2018-11-20T03:35:19.102Z,84.33
2018-11-20T03:40:31.686Z,84.51
2018-11-20T03:45:51.146Z,84.02
2018-11-20T03:50:57.513Z,83.39
2018-11-20T03:56:06.071Z,83.17
2018-11-20T04:01:16.622Z,83.11
2018-11-20T04:06:24.347Z,83.00
2018-11-20T04:11:28.030Z,82.72
2018-11-20T04:16:34.648Z,82.54
2018-11-20T04:21:40.835Z,82.37
2018-11-20T04:27:03.957Z,83.04
2018-11-20T04:32:12.818Z,82.44
2018-11-20T04:37:25.021Z,82.11
2018-11-20T04:42:39.007Z,81.79
2018-11-20T04:47:45.004Z,82.64
2018-11-20T04:52:52.853Z,82.07
2018-11-20T04:58:02.223Z,81.66
2018-11-20T05:03:10.452Z,81.58
2018-11-20T05:08:33.527Z,81.84
2018-11-20T05:13:43.800Z,82.22
2018-11-20T05:18:52.127Z,81.85
2018-11-20T05:23:59.748Z,82.07
2018-11-20T05:29:09.777Z,81.86
2018-11-20T05:34:37.048Z,82.21
2018-11-20T05:39:42.606Z,82.24
2018-11-20T05:45:02.047Z,82.48
2018-11-20T05:50:07.501Z,82.80
2018-11-20T05:55:16.755Z,83.09
2018-11-20T06:00:20.598Z,82.67
2018-11-20T06:05:29.125Z,81.99
2018-11-20T06:10:44.113Z,81.49
2018-11-20T06:15:48.565Z,81.49
2018-11-20T06:20:54.571Z,81.28
2018-11-20T06:25:59.217Z,81.27
2018-11-20T06:31:07.185Z,80.96
2018-11-20T06:36:17.713Z,80.78
2018-11-20T06:41:22.830Z,80.65
2018-11-20T06:46:44.039Z,80.37
2018-11-20T06:52:08.110Z,80.16
2018-11-20T06:57:30.085Z,80.09
2018-11-20T07:02:53.900Z,79.87
2018-11-20T07:08:20.262Z,79.91
2018-11-20T07:14:00.400Z,79.80
2018-11-20T07:19:03.278Z,79.88
2018-11-20T07:24:09.629Z,79.78
2018-11-20T07:29:23.830Z,79.57
2018-11-20T07:34:38.055Z,79.59
2018-11-20T07:39:53.977Z,78.98
2018-11-20T07:45:14.202Z,78.76
2018-11-20T07:50:22.206Z,78.70
2018-11-20T07:55:35.986Z,78.72
2018-11-20T08:00:47.272Z,79.08
2018-11-20T08:06:01.248Z,79.07
2018-11-20T08:12:55.928Z,79.20
2018-11-20T08:18:02.638Z,78.76
2018-11-20T08:23:16.339Z,78.54
2018-11-20T08:28:24.954Z,78.23
2018-11-20T08:33:38.804Z,78.28
2018-11-20T08:38:52.896Z,77.93
2018-11-20T08:43:56.549Z,77.69
2018-11-20T08:49:01.200Z,77.63
2018-11-20T08:54:02.967Z,77.73
2018-11-20T08:59:17.812Z,76.41
2018-11-20T09:04:33.981Z,76.41
2018-11-20T09:09:41.802Z,76.47
2018-11-20T09:14:44.726Z,76.13
2018-11-20T09:20:11.793Z,75.47
2018-11-20T09:25:16.402Z,75.85
2018-11-20T09:30:41.012Z,76.37
2018-11-20T09:35:45.900Z,75.91
2018-11-20T09:41:41.542Z,75.47
2018-11-20T09:46:58.276Z,76.40
2018-11-20T09:52:03.219Z,76.40
2018-11-20T09:57:08.694Z,76.59
2018-11-20T10:02:24.927Z,76.29
2018-11-20T10:07:29.726Z,76.73
2018-11-20T10:12:52.045Z,76.62
2018-11-20T10:18:01.375Z,77.04
2018-11-20T10:23:06.927Z,76.05
2018-11-20T10:28:14.904Z,76.05
2018-11-20T10:33:32.812Z,75.20
2018-11-20T10:38:37.532Z,74.44
2018-11-20T10:43:42.532Z,75.10
2018-11-20T10:48:49.594Z,74.93
2018-11-20T10:53:55.374Z,74.86
2018-11-20T10:59:04.147Z,74.86
2018-11-20T11:04:18.502Z,74.94
2018-11-20T11:09:38.579Z,75.13
2018-11-20T11:14:45.355Z,75.13
2018-11-20T11:20:06.237Z,75.57
2018-11-20T11:25:28.356Z,75.56
2018-11-20T11:30:42.986Z,75.28
2018-11-20T11:35:46.776Z,75.77
2018-11-20T11:40:52.502Z,75.48
2018-11-20T11:46:03.631Z,75.03
2018-11-20T11:51:09.152Z,75.30
2018-11-20T11:56:11.694Z,75.34
2018-11-20T12:01:27.233Z,76.16
2018-11-20T12:06:38.681Z,75.17
2018-11-20T12:11:52.376Z,75.17
2018-11-20T12:17:09.124Z,76.27
2018-11-20T12:22:15.905Z,76.91
2018-11-20T12:27:27.246Z,77.01
2018-11-20T12:32:32.746Z,77.04
2018-11-20T12:38:01.763Z,77.18
2018-11-20T12:43:04.611Z,77.53
2018-11-20T12:48:12.189Z,77.31
2018-11-20T12:53:15.312Z,78.19
2018-11-20T12:58:22.150Z,78.34
2018-11-20T13:03:41.125Z,77.99
2018-11-20T13:08:58.569Z,78.39
2018-11-20T13:14:04.486Z,77.37
2018-11-20T13:19:12.588Z,77.86
2018-11-20T13:24:25.709Z,78.32
2018-11-20T13:29:31.855Z,78.32
2018-11-20T13:34:51.213Z,78.70
2018-11-20T13:39:54.485Z,79.86
2018-11-20T13:45:04.373Z,80.02
2018-11-20T13:50:14.064Z,80.20
2018-11-20T13:55:32.169Z,80.02
2018-11-20T14:00:59.445Z,80.14
2018-11-20T14:06:21.464Z,80.04
2018-11-20T14:11:24.512Z,80.04
2018-11-20T14:16:32.897Z,79.84
2018-11-20T14:21:57.090Z,79.71
2018-11-20T14:27:13.581Z,79.71
2018-11-20T14:32:33.029Z,79.56
2018-11-20T14:37:48.133Z,80.00
2018-11-20T14:42:51.513Z,80.00
2018-11-20T14:47:57.491Z,80.86
2018-11-20T14:53:19.358Z,80.86
2018-11-20T14:58:29.089Z,81.57
2018-11-20T15:03:46.333Z,81.65
2018-11-20T15:09:20.203Z,80.97
2018-11-20T15:14:26.461Z,81.31
2018-11-20T15:19:32.606Z,81.09
2018-11-20T15:24:36.991Z,81.09
2018-11-20T15:30:00.638Z,82.23
2018-11-20T15:35:10.442Z,82.23
2018-11-20T15:40:36.547Z,82.45
2018-11-20T15:45:42.252Z,83.02
2018-11-20T15:50:47.577Z,83.10
2018-11-20T15:55:49.292Z,83.64
2018-11-20T16:00:59.008Z,83.98
2018-11-20T16:06:00.953Z,84.04
2018-11-20T16:11:05.541Z,84.24
2018-11-20T16:16:13.751Z,84.62
2018-11-20T16:21:33.645Z,84.79
2018-11-20T16:26:34.909Z,84.82
2018-11-20T16:31:38.182Z,85.80
2018-11-20T16:37:06.989Z,85.94
2018-11-20T16:42:20.143Z,86.52
2018-11-20T16:47:25.881Z,86.49
2018-11-20T16:52:29.364Z,86.31
2018-11-20T16:57:44.545Z,86.73
2018-11-20T17:02:51.664Z,86.78
2018-11-20T17:08:12.379Z,86.65
2018-11-20T17:13:13.067Z,86.87
2018-11-20T17:18:23.034Z,87.72
2018-11-20T17:23:36.897Z,87.82
2018-11-20T17:29:06.121Z,87.93
2018-11-20T17:34:13.230Z,87.10
2018-11-20T17:39:34.420Z,88.95
2018-11-20T17:45:03.314Z,89.20
2018-11-20T17:50:21.360Z,88.98
2018-11-20T17:55:33.516Z,89.20
2018-11-20T18:00:39.250Z,89.31
2018-11-20T18:05:58.111Z,89.53
2018-11-20T18:11:16.118Z,89.80
2018-11-20T18:16:29.020Z,89.87
2018-11-20T18:21:37.029Z,90.13
2018-11-20T18:26:38.179Z,90.43
2018-11-20T18:31:47.826Z,90.60
2018-11-20T18:36:58.604Z,90.82
2018-11-20T18:42:09.661Z,90.64
2018-11-20T18:47:06.573Z,90.91
2018-11-20T18:52:31.478Z,91.11
2018-11-20T18:57:42.640Z,91.27
2018-11-20T19:03:04.153Z,91.72
2018-11-20T19:08:06.369Z,92.73
2018-11-20T19:13:28.096Z,92.73
2018-11-20T19:19:09.445Z,93.49
2018-11-20T19:24:22.135Z,93.65
2018-11-20T19:29:29.742Z,94.14
2018-11-20T19:34:42.580Z,93.71
2018-11-20T19:39:50.031Z,94.04
2018-11-20T19:44:58.073Z,94.25
2018-11-20T19:50:24.161Z,94.19
2018-11-20T19:55:39.225Z,94.70
2018-11-20T20:00:53.121Z,94.81
2018-11-20T20:05:59.128Z,94.74
2018-11-20T20:11:22.194Z,95.17
2018-11-20T20:16:28.333Z,94.97
2018-11-20T20:21:35.232Z,94.69
2018-11-20T20:26:41.192Z,94.93
2018-11-20T20:31:44.835Z,95.81
2018-11-20T20:36:48.567Z,95.42
2018-11-20T20:41:55.042Z,95.82
2018-11-20T20:47:02.343Z,95.82
2018-11-20T20:52:06.304Z,96.48
2018-11-20T20:57:21.869Z,96.48
2018-11-20T21:02:30.266Z,96.97
2018-11-20T21:07:43.167Z,97.42
2018-11-20T21:12:46.633Z,97.63
2018-11-20T21:17:57.092Z,97.77
2018-11-20T21:23:20.324Z,97.86
2018-11-20T21:28:28.376Z,97.86
2018-11-20T21:33:51.451Z,97.74
2018-11-20T21:39:16.939Z,98.08
2018-11-20T21:44:37.047Z,98.12
2018-11-20T21:49:44.125Z,98.32
2018-11-20T21:54:49.346Z,98.36
2018-11-20T21:59:55.633Z,98.43
2018-11-20T22:05:00.523Z,98.37
2018-11-20T22:10:03.508Z,98.51
2018-11-20T22:15:09.304Z,98.56
2018-11-20T22:20:29.561Z,98.69
2018-11-20T22:25:34.896Z,98.88
2018-11-20T22:30:44.860Z,98.96
2018-11-20T22:35:50.663Z,99.18
2018-11-20T22:40:57.562Z,99.07
2018-11-20T22:46:02.647Z,99.10
2018-11-20T22:51:15.702Z,99.23
2018-11-20T22:56:23.054Z,99.36
2018-11-20T23:01:31.796Z,99.14
2018-11-20T23:06:38.549Z,99.01
2018-11-20T23:11:26.725Z,99.08
2018-11-20T23:16:14.344Z,99.08
2018-11-20T23:21:02.035Z,99.04
2018-11-20T23:25:47.948Z,99.03
2018-11-20T23:30:37.712Z,99.09
2018-11-20T23:35:27.579Z,99.02
2018-11-20T23:40:15.501Z,99.21
2018-11-20T23:44:59.612Z,99.27
2018-11-20T23:49:44.447Z,99.57
2018-11-20T23:54:34.013Z,99.59
2018-11-20T23:59:23.589Z,99.74
